»·PEaware :: AAL1228 KSFO-KFAT

AAL1228 :: KSFO-KFAT

FLIGHT INFORMATION

Flight Status: Arrived
Operator:
American Airlines
More flights by this operator :: More flights under this callsign
Pilot: Michael M. (12217)
Aircraft: BOEING 737-800
(B738)
More flights by this aircraft type
Origin: KSFO San Francisco Intl
United States
Destination: KFAT Fresno Yosemite Intl
United States
More flights between these airports :: More routes between these airports
Route: +SSTIK3 NTELL
File this flight plan on PilotEdge
Remarks:
Altitude:
(Current/Filed)
23,000ft
Speed:
(Current/Filed)
541kts
Departed: 07-Feb-18 07:16 PM
Arrived: 07-Feb-18 08:00 PM
Distance/Time
Traveled:
136nm/0:44
Distance/Time
To Go:
Arrived

Flight Plot

Page will automatically refresh every two minutes.

Flight plan parsing failed; only flown route is shown


Map Options




Map Legend


Flown Route
Filed Route
Departure Airport
Arrival Airport
Navaid (VOR, NDB)
Fix

Horizontal Profiles

Position Reports

Time Latitude Longitude Heading Altitude Ground
Speed
07-Feb-18 18:05 37.612364 -122.383201 332 20ft 0kts
07-Feb-18 18:06 37.612364 -122.383201 332 20ft 0kts
07-Feb-18 18:07 37.612364 -122.383201 332 20ft 0kts
07-Feb-18 18:08 37.612364 -122.383201 332 20ft 0kts
07-Feb-18 18:09 37.612364 -122.383201 332 20ft 0kts
07-Feb-18 18:10 37.612364 -122.383201 332 20ft 0kts
07-Feb-18 18:11 37.612364 -122.383201 332 20ft 0kts
07-Feb-18 18:12 37.612364 -122.383201 332 20ft 0kts
07-Feb-18 18:13 37.612364 -122.383201 332 20ft 0kts
07-Feb-18 18:14 37.612364 -122.383201 332 20ft 0kts
07-Feb-18 18:15 37.612364 -122.383201 332 20ft 0kts
07-Feb-18 18:16 37.612364 -122.383201 332 20ft 0kts
07-Feb-18 18:17 37.612364 -122.383201 332 20ft 0kts
07-Feb-18 18:18 37.612364 -122.383201 332 20ft 0kts
07-Feb-18 18:19 37.612364 -122.383201 332 20ft 0kts
07-Feb-18 18:20 37.612364 -122.383201 332 20ft 0kts
07-Feb-18 18:21 37.612364 -122.383201 332 20ft 0kts
07-Feb-18 18:22 37.612364 -122.383201 332 20ft 0kts
07-Feb-18 18:23 37.612364 -122.383201 332 20ft 0kts
07-Feb-18 18:24 37.612364 -122.383201 332 20ft 0kts
07-Feb-18 18:25 37.612364 -122.383201 332 20ft 0kts
07-Feb-18 18:26 37.612364 -122.383201 332 20ft 0kts
07-Feb-18 18:27 37.612364 -122.383201 332 20ft 0kts
07-Feb-18 18:28 37.612364 -122.383201 332 20ft 0kts
07-Feb-18 18:29 37.612364 -122.383201 332 20ft 0kts
07-Feb-18 18:30 37.612364 -122.383201 332 20ft 0kts
07-Feb-18 18:31 37.612364 -122.383201 332 20ft 0kts
07-Feb-18 18:32 37.612364 -122.383201 332 20ft 0kts
07-Feb-18 18:33 37.612364 -122.383201 332 20ft 0kts
07-Feb-18 18:34 37.612364 -122.383201 332 20ft 0kts
07-Feb-18 18:35 37.612364 -122.383201 332 20ft 0kts
07-Feb-18 18:36 37.612364 -122.383201 332 20ft 0kts
07-Feb-18 18:37 37.612364 -122.383201 332 20ft 0kts
07-Feb-18 18:38 37.612364 -122.383201 332 20ft 0kts
07-Feb-18 18:39 37.612261 -122.383188 18 21ft 2kts
07-Feb-18 18:40 37.611739 -122.383221 0 20ft 1kts
07-Feb-18 18:41 37.611762 -122.383033 210 21ft 0kts
07-Feb-18 18:41 37.611762 -122.383033 210 20ft 0kts
07-Feb-18 18:43 37.611762 -122.383033 210 20ft 0kts
07-Feb-18 18:43 37.611762 -122.383033 210 20ft 0kts
07-Feb-18 18:44 37.611762 -122.383033 210 20ft 0kts
07-Feb-18 18:46 37.610393 -122.383844 206 20ft 6kts
07-Feb-18 18:46 37.609846 -122.384209 205 20ft 0kts
07-Feb-18 18:47 37.608499 -122.384538 182 20ft 0kts
07-Feb-18 18:48 37.608816 -122.384340 340 20ft 1kts
07-Feb-18 18:49 37.608690 -122.383849 204 20ft 1kts
07-Feb-18 18:50 37.607825 -122.384504 174 20ft 0kts
07-Feb-18 18:51 37.607804 -122.384501 174 21ft 0kts
07-Feb-18 18:52 37.607804 -122.384501 174 21ft 0kts
07-Feb-18 18:53 37.607804 -122.384501 174 21ft 0kts
07-Feb-18 18:54 37.607804 -122.384501 174 21ft 0kts
07-Feb-18 18:55 37.607804 -122.384501 174 21ft 0kts
07-Feb-18 18:56 37.607804 -122.384501 174 21ft 0kts
07-Feb-18 18:57 37.607804 -122.384501 174 21ft 0kts
07-Feb-18 18:58 37.607804 -122.384501 174 21ft 0kts
07-Feb-18 19:02 37.612364 -122.383201 332 20ft 0kts
07-Feb-18 19:03 37.612364 -122.383201 332 20ft 0kts
07-Feb-18 19:04 37.612364 -122.383201 332 20ft 0kts
07-Feb-18 19:05 37.612364 -122.383201 332 20ft 0kts
07-Feb-18 19:06 37.612364 -122.383201 332 20ft 0kts
07-Feb-18 19:07 37.612364 -122.383201 332 20ft 0kts
07-Feb-18 19:08 37.612364 -122.383201 332 20ft 0kts
07-Feb-18 19:09 37.612364 -122.383201 332 20ft 0kts
07-Feb-18 19:10 37.612364 -122.383201 332 20ft 0kts
07-Feb-18 19:11 37.612364 -122.383201 332 20ft 0kts
07-Feb-18 19:12 37.612364 -122.383201 332 20ft 0kts
07-Feb-18 19:13 37.612010 -122.383204 3 20ft 2kts
07-Feb-18 19:14 37.611675 -122.383140 261 20ft 0kts
07-Feb-18 19:15 37.611631 -122.383143 213 20ft 0kts
07-Feb-18 19:16 37.611631 -122.383143 213 20ft 0kts
07-Feb-18 19:17 37.611625 -122.383148 213 20ft 1kts
07-Feb-18 19:18 37.609417 -122.383470 125 20ft 0kts
07-Feb-18 19:19 37.609417 -122.383470 125 20ft 0kts
07-Feb-18 19:20 37.609417 -122.383470 125 20ft 0kts
07-Feb-18 19:21 37.609767 -122.381718 26 20ft 20kts
07-Feb-18 19:22 37.639167 -122.364619 10 942ft 170kts
07-Feb-18 19:23 37.692398 -122.366352 324 2657ft 239kts
07-Feb-18 19:24 37.682475 -122.437974 211 5757ft 254kts
07-Feb-18 19:25 37.608184 -122.455965 187 8717ft 284kts
07-Feb-18 19:26 37.525929 -122.468365 180 11062ft 317kts
07-Feb-18 19:27 37.453860 -122.409564 127 14040ft 330kts
07-Feb-18 19:28 37.405902 -122.310703 104 16812ft 342kts
07-Feb-18 19:29 37.381012 -122.193088 103 19422ft 357kts
07-Feb-18 19:30 37.354422 -122.070487 103 21862ft 371kts
07-Feb-18 19:31 37.326869 -121.943319 103 23283ft 395kts
07-Feb-18 19:32 37.296815 -121.803792 103 23263ft 421kts
07-Feb-18 19:33 37.266492 -121.662666 103 23265ft 420kts
07-Feb-18 19:34 37.236299 -121.521394 102 23270ft 420kts
07-Feb-18 19:35 37.206202 -121.379776 102 23273ft 420kts
07-Feb-18 19:36 37.176421 -121.238864 103 23273ft 420kts
07-Feb-18 19:37 37.148365 -121.105709 102 22972ft 377kts
07-Feb-18 19:38 37.122079 -120.980028 102 21617ft 366kts
07-Feb-18 19:39 37.098127 -120.865154 102 20775ft 324kts
07-Feb-18 19:40 37.075828 -120.757451 102 19060ft 316kts
07-Feb-18 19:41 37.054208 -120.652580 102 17386ft 308kts
07-Feb-18 19:43 37.033179 -120.550134 102 15781ft 300kts
07-Feb-18 19:44 37.012825 -120.450569 102 14260ft 292kts
07-Feb-18 19:45 36.993090 -120.353623 102 12751ft 286kts
07-Feb-18 19:46 36.974866 -120.263818 102 12133ft 259kts
07-Feb-18 19:47 36.958206 -120.181257 103 10196ft 268kts
07-Feb-18 19:48 36.935254 -120.090974 128 8425ft 279kts
07-Feb-18 19:49 36.883994 -120.019922 132 6916ft 279kts
07-Feb-18 19:50 36.833428 -119.950616 132 4900ft 255kts
07-Feb-18 19:51 36.792073 -119.893751 132 4195ft 196kts
07-Feb-18 19:52 36.757551 -119.846268 132 4202ft 182kts
07-Feb-18 19:53 36.723833 -119.799866 132 4013ft 180kts
07-Feb-18 19:54 36.690173 -119.753520 132 3993ft 180kts
07-Feb-18 19:55 36.656602 -119.707288 132 3994ft 180kts
07-Feb-18 19:56 36.623604 -119.661866 131 3993ft 176kts
07-Feb-18 19:57 36.590604 -119.616721 131 3987ft 175kts
07-Feb-18 19:58 36.557840 -119.572136 131 3984ft 174kts
07-Feb-18 19:59 36.555942 -119.524011 36 3665ft 171kts
07-Feb-18 20:00 36.593275 -119.488819 35 2657ft 170kts
07-Feb-18 20:01 36.632339 -119.458433 346 1953ft 163kts
07-Feb-18 20:02 36.660489 -119.501803 299 1984ft 165kts
07-Feb-18 20:03 36.683654 -119.551414 299 1983ft 165kts
07-Feb-18 20:04 36.706755 -119.600889 300 1621ft 164kts
07-Feb-18 20:05 36.729556 -119.649708 300 1487ft 164kts
07-Feb-18 20:06 36.760771 -119.689884 303 692ft 160kts
07-Feb-18 20:07 36.783442 -119.729147 300 341ft 32kts
07-Feb-18 20:08 36.783772 -119.729666 131 341ft 0kts
07-Feb-18 20:09 36.783680 -119.729064 354 341ft 0kts
07-Feb-18 20:10 36.784654 -119.727841 83 341ft 3kts
07-Feb-18 20:11 36.783676 -119.725689 123 341ft 28kts
07-Feb-18 20:12 36.782773 -119.721527 9 341ft 13kts
07-Feb-18 20:13 36.784532 -119.720382 190 341ft 0kts

Navigation Log

Ident Type
Flight plan parsing failed, navigation log unavailable